WetterOnline ( http://www.wetteronline.de )

Wetter aktuell Kappeln

Aktuelles Wetter: Schönhagen (Ostseebad) (02m)

6-stündlich | Neueste Meldungen
Ortszeit Temperatur Wetter
Fr, 20.07. 20:00 21.7° C wolkenlos
Fr, 20.07. 14:00 21.9° C wolkenlos
Fr, 20.07. 8:00 15.2° C wolkenlos
Fr, 20.07. 2:00 12.3° C wolkig
Do, 19.07. 20:00 21.2° C wolkenlos
Do, 19.07. 14:00 24.3° C wolkig
Do, 19.07. 8:00 16.3° C wolkenlos
Do, 19.07. 2:00 14.6° C wolkenlos
Ortszeit Temperatur Wetter
Sa, 21.07. 1:30 16.4° C wolkenlos
Sa, 21.07. 1:20 16.4° C wolkenlos
Sa, 21.07. 1:10 16.3° C fast wolkenlos
Sa, 21.07. 1:00 15.8° C fast wolkenlos
Sa, 21.07. 0:50 15.8° C fast wolkenlos
Sa, 21.07. 0:40 16.3° C fast wolkenlos
Sa, 21.07. 0:30 15.7° C fast wolkenlos
Sa, 21.07. 0:00 15.8° C fast wolkenlos
Fr, 20.07. 23:30 13.8° C fast wolkenlos
Fr, 20.07. 23:00 14.4° C fast wolkenlos
Fr, 20.07. 22:30 15.7° C wolkenlos
Ortszeit Relative Feuchte Sichtweite
Fr, 20.07. 20:00 57% 40 km
Fr, 20.07. 14:00 51% 14 km
Fr, 20.07. 8:00 82% 12 km
Fr, 20.07. 2:00 88% 16 km
Do, 19.07. 20:00 40% 12 km
Do, 19.07. 14:00 40% 20 km
Do, 19.07. 8:00 89% 11 km
Do, 19.07. 2:00 82% 24 km
Ortszeit Relative Feuchte Sichtweite
Sa, 21.07. 1:30 80% 22 km
Sa, 21.07. 1:20 80% -
Sa, 21.07. 1:10 80% -
Sa, 21.07. 1:00 79% 27 km
Sa, 21.07. 0:50 79% -
Sa, 21.07. 0:40 77% -
Sa, 21.07. 0:30 78% 30 km
Sa, 21.07. 0:00 79% 29 km
Fr, 20.07. 23:30 90% 14 km
Fr, 20.07. 23:00 87% 17 km
Fr, 20.07. 22:30 85% 23 km
Ortszeit Niederschlagsmenge Niederschlagsart
Fr, 20.07. 20:00 0.0 l/m2 in 12 Std. -
Fr, 20.07. 14:00 0.0 l/m2 in 6 Std. -
Fr, 20.07. 8:00 0.0 l/m2 in 12 Std. -
Fr, 20.07. 2:00 0.0 l/m2 in 6 Std. -
Do, 19.07. 20:00 0.0 l/m2 in 12 Std. -
Do, 19.07. 14:00 0.0 l/m2 in 6 Std. -
Do, 19.07. 8:00 0.0 l/m2 in 12 Std. -
Do, 19.07. 2:00 0.0 l/m2 in 6 Std. -
Ortszeit Niederschlagsmenge Niederschlagsart
Sa, 21.07. 1:30 0.0 l/m2 in 1 Std. -
Sa, 21.07. 1:20 keine Meldung -
Sa, 21.07. 1:10 keine Meldung -
Sa, 21.07. 1:00 0.0 l/m2 in 1 Std. -
Sa, 21.07. 0:50 keine Meldung -
Sa, 21.07. 0:40 keine Meldung -
Sa, 21.07. 0:30 0.0 l/m2 in 1 Std. -
Sa, 21.07. 0:00 0.0 l/m2 in 1 Std. -
Fr, 20.07. 23:30 0.0 l/m2 in 1 Std. -
Fr, 20.07. 23:00 0.0 l/m2 in 1 Std. -
Fr, 20.07. 22:30 0.0 l/m2 in 1 Std. -
Ortszeit Stärke Spitze Richtung
km/h Bft. km/h Grad Sektor
Fr, 20.07. 20:00 4 1 22 130° SO
Fr, 20.07. 14:00 14 3 29 130° SO
Fr, 20.07. 8:00 11 2 14 280° W
Fr, 20.07. 2:00 7 2 31 280° W
Do, 19.07. 20:00 22 4 36 310° NW
Do, 19.07. 14:00 24 4 43 270° W
Do, 19.07. 8:00 13 3 19 320° NW
Do, 19.07. 2:00 15 3 35 300° NW
Ortszeit Stärke Spitze Richtung
km/h Bft. km/h Grad Sektor
Sa, 21.07. 1:30 13 3 15 330° NW
Sa, 21.07. 1:20 13 3 - 330° NW
Sa, 21.07. 1:10 13 3 - 330° NW
Sa, 21.07. 1:00 11 2 14 320° NW
Sa, 21.07. 0:50 11 2 - 320° NW
Sa, 21.07. 0:40 11 2 - 310° NW
Sa, 21.07. 0:30 7 2 14 310° NW
Sa, 21.07. 0:00 11 2 14 320° NW
Fr, 20.07. 23:30 7 2 7 290° W
Fr, 20.07. 23:00 6 1 7 260° W
Fr, 20.07. 22:30 7 2 7 270° W
Ortszeit Untergrenze Bedeckung Gattung
total tief tief mittel hoch
Fr, 20.07. 20:00 - 0/8 0/8 - - -
Fr, 20.07. 14:00 - 0/8 0/8 - - -
Fr, 20.07. 8:00 - 0/8 0/8 - - -
Fr, 20.07. 2:00 9000 m 8/8 0/8 - - -
Do, 19.07. 20:00 - 0/8 0/8 - - -
Do, 19.07. 14:00 1500 m 5/8 5/8 - - -
Do, 19.07. 8:00 - 0/8 0/8 - - -
Do, 19.07. 2:00 - 0/8 0/8 - - -
Ortszeit Bedeckungsgrad in Achtel und Wolkenuntergrenze
Sa, 21.07. 1:30 keine Wolken
Sa, 21.07. 1:20 keine Wolken
Sa, 21.07. 1:10 1(3000m)
Sa, 21.07. 1:00 1(3300m)
Sa, 21.07. 0:50 1(3300m)
Sa, 21.07. 0:40 1(3300m)
Sa, 21.07. 0:30 1(3300m)
Sa, 21.07. 0:00 1(3300m)
Fr, 20.07. 23:30 1(3300m)
Fr, 20.07. 23:00 1(3000m)
Fr, 20.07. 22:30 keine Wolken
Ortszeit Luftdruck NN (hPa) Tendenz (hPa in 3 Std.)
Fr, 20.07. 20:00 1013 - 1,0
Fr, 20.07. 14:00 1015 - 0,9
Fr, 20.07. 8:00 1017 - 0,3
Fr, 20.07. 2:00 1017 0,0
Do, 19.07. 20:00 1017 - 0,3
Do, 19.07. 14:00 1018 - 0,9
Do, 19.07. 8:00 1019 + 0,3
Do, 19.07. 2:00 1019 + 0,8
Ortszeit Luftdruck NN (hPa) Tendenz (hPa in 3 Std.)
Sa, 21.07. 1:30 1014 0,0
Sa, 21.07. 1:20 1014 keine Meldung
Sa, 21.07. 1:10 1014 keine Meldung
Sa, 21.07. 1:00 1014 + 0,2
Sa, 21.07. 0:50 1014 keine Meldung
Sa, 21.07. 0:40 1014 keine Meldung
Sa, 21.07. 0:30 1014 + 0,3
Sa, 21.07. 0:00 1014 + 0,3
Fr, 20.07. 23:30 1014 + 0,1
Fr, 20.07. 23:00 1014 + 0,2
Fr, 20.07. 22:30 1014 + 0,2
Ortszeit Schneehöhe (cm)
Fr, 20.07. 20:00 -
Fr, 20.07. 14:00 -
Fr, 20.07. 8:00 -
Fr, 20.07. 2:00 -
Do, 19.07. 20:00 -
Do, 19.07. 14:00 -
Do, 19.07. 8:00 -
Do, 19.07. 2:00 -
Ortszeit Schneehöhe (cm)
Sa, 21.07. 1:30 -
Sa, 21.07. 1:20 -
Sa, 21.07. 1:10 -
Sa, 21.07. 1:00 -
Sa, 21.07. 0:50 -
Sa, 21.07. 0:40 -
Sa, 21.07. 0:30 -
Sa, 21.07. 0:00 -
Fr, 20.07. 23:30 -
Fr, 20.07. 23:00 -
Fr, 20.07. 22:30 -
Link zu dieser Seite / Seite empfehlen

Das Wetter in ...